Time;durP1;ratioP1;P1;durP2;ratioP2;P2;SDS_P1;SDS_P2;PMS_P1;PMS_P2;Temp;Humidity;BMP_temperature;BMP_pressure;BME280_temperature;BME280_humidity;BME280_pressure;Samples;Min_cycle;Max_cycle;Signal;HPM_P1;HPM_P2
2021/11/14 00:00:23;;;;;;;26.23;11.77;;;;;;;;;;5051762;28;20111;-36
2021/11/14 00:02:49;;;;;;;30.60;11.60;;;;;;;;;;5051841;28;20518;-36
2021/11/14 00:05:14;;;;;;;25.17;10.98;;;;;;;;;;5051304;28;20131;-36
2021/11/14 00:07:41;;;;;;;28.70;11.95;;;;;;;;;;5051705;28;20368;-37
2021/11/14 00:10:07;;;;;;;31.63;11.85;;;;;;;;;;5051203;28;20040;-35
2021/11/14 00:12:32;;;;;;;25.65;11.40;;;;;;;;;;5051296;28;20025;-36
2021/11/14 00:14:58;;;;;;;24.77;10.98;;;;;;;;;;5051336;28;20033;-36
2021/11/14 00:17:30;;;;;;;22.63;11.35;;;;;;;;;;5051261;28;20068;-36
2021/11/14 00:19:55;;;;;;;30.30;12.40;;;;;;;;;;5051350;28;20068;-36
2021/11/14 00:22:21;;;;;;;24.40;10.70;;;;;;;;;;5050377;28;20102;-36
2021/11/14 00:24:46;;;;;;;20.17;10.02;;;;;;;;;;5033461;28;20461;-36
2021/11/14 00:27:11;;;;;;;27.77;10.30;;;;;;;;;;5033363;28;20113;-36
2021/11/14 00:29:37;;;;;;;26.10;10.45;;;;;;;;;;5051199;28;20061;-36
2021/11/14 00:32:02;;;;;;;23.48;10.32;;;;;;;;;;5033187;28;20067;-37
2021/11/14 00:34:28;;;;;;;21.05;10.55;;;;;;;;;;5051017;28;20021;-36
2021/11/14 00:36:54;;;;;;;23.33;11.82;;;;;;;;;;5051045;28;20060;-36
2021/11/14 00:39:19;;;;;;;25.00;10.40;;;;;;;;;;5051027;28;20384;-37
2021/11/14 00:41:45;;;;;;;30.02;12.15;;;;;;;;;;5051005;28;20033;-36
2021/11/14 00:44:11;;;;;;;20.75;9.82;;;;;;;;;;5051234;28;20033;-36
2021/11/14 00:46:39;;;;;;;19.70;9.50;;;;;;;;;;5051194;28;20544;-36
2021/11/14 00:49:04;;;;;;;17.90;9.18;;;;;;;;;;5051283;28;20464;-36
2021/11/14 00:51:29;;;;;;;21.70;10.38;;;;;;;;;;5051163;28;20024;-36
2021/11/14 00:53:56;;;;;;;22.17;10.48;;;;;;;;;;5050969;28;20107;-36
2021/11/14 00:56:21;;;;;;;25.17;12.07;;;;;;;;;;5050937;28;20036;-36
2021/11/14 00:58:47;;;;;;;24.23;10.82;;;;;;;;;;5050997;28;20029;-36
2021/11/14 01:01:12;;;;;;;27.10;12.02;;;;;;;;;;5050999;28;20407;-36
2021/11/14 01:03:37;;;;;;;20.75;9.68;;;;;;;;;;5050877;28;20064;-36
2021/11/14 01:06:03;;;;;;;20.58;10.45;;;;;;;;;;5051006;28;20120;-36
2021/11/14 01:08:28;;;;;;;25.13;10.77;;;;;;;;;;5050728;28;20025;-36
2021/11/14 01:10:55;;;;;;;28.75;11.45;;;;;;;;;;5051134;28;20420;-36
2021/11/14 01:13:21;;;;;;;27.85;10.75;;;;;;;;;;5050731;28;20140;-37
2021/11/14 01:15:47;;;;;;;27.45;10.70;;;;;;;;;;5051007;28;20183;-36
2021/11/14 01:18:14;;;;;;;21.48;10.43;;;;;;;;;;5050644;28;20051;-36
2021/11/14 01:20:41;;;;;;;23.33;10.57;;;;;;;;;;5033028;28;20017;-36
2021/11/14 01:23:07;;;;;;;22.73;10.57;;;;;;;;;;5050693;28;20029;-36
2021/11/14 01:25:33;;;;;;;22.13;9.70;;;;;;;;;;5050526;28;20036;-37
2021/11/14 01:27:59;;;;;;;19.92;10.27;;;;;;;;;;5050722;28;20024;-36
2021/11/14 01:30:26;;;;;;;22.70;9.10;;;;;;;;;;5050756;28;20039;-36
2021/11/14 01:32:52;;;;;;;27.27;11.23;;;;;;;;;;5051642;28;20029;-35
2021/11/14 01:35:17;;;;;;;18.67;9.38;;;;;;;;;;5054155;28;20055;-36
2021/11/14 01:37:46;;;;;;;18.65;7.57;;;;;;;;;;5054066;28;20076;-36
2021/11/14 01:40:13;;;;;;;23.92;9.65;;;;;;;;;;5036230;28;20472;-36
2021/11/14 01:42:38;;;;;;;22.42;9.77;;;;;;;;;;5054204;28;20101;-37
2021/11/14 01:45:04;;;;;;;19.80;8.85;;;;;;;;;;5053958;28;20531;-36
2021/11/14 01:47:30;;;;;;;28.33;11.77;;;;;;;;;;5053935;28;20075;-36
2021/11/14 01:49:55;;;;;;;18.52;9.25;;;;;;;;;;5053870;28;20084;-36
2021/11/14 01:52:22;;;;;;;22.55;10.63;;;;;;;;;;5054008;28;20094;-36
2021/11/14 01:54:48;;;;;;;20.80;9.60;;;;;;;;;;5054010;28;20025;-36
2021/11/14 01:57:13;;;;;;;17.95;8.40;;;;;;;;;;5035798;28;20081;-36
2021/11/14 01:59:39;;;;;;;19.58;8.98;;;;;;;;;;5035941;28;20077;-37
2021/11/14 02:02:05;;;;;;;15.60;8.80;;;;;;;;;;5053879;28;20176;-36
2021/11/14 02:04:30;;;;;;;21.30;10.10;;;;;;;;;;5053491;28;20479;-36
2021/11/14 02:06:55;;;;;;;18.40;8.27;;;;;;;;;;5053611;28;20043;-36
2021/11/14 02:09:21;;;;;;;20.15;8.68;;;;;;;;;;5053535;28;20095;-36
2021/11/14 02:11:46;;;;;;;18.25;8.90;;;;;;;;;;5053471;28;20434;-36
2021/11/14 02:14:11;;;;;;;17.52;7.70;;;;;;;;;;5053612;28;20024;-36
2021/11/14 02:16:37;;;;;;;16.75;9.38;;;;;;;;;;5053509;28;20120;-36
2021/11/14 02:19:02;;;;;;;19.25;9.98;;;;;;;;;;5053392;28;20048;-37
2021/11/14 02:21:28;;;;;;;22.17;10.00;;;;;;;;;;5053449;28;20039;-37
2021/11/14 02:23:53;;;;;;;22.77;8.95;;;;;;;;;;5053376;28;20040;-36
2021/11/14 02:26:21;;;;;;;25.15;10.57;;;;;;;;;;5053278;28;20040;-36
2021/11/14 02:28:47;;;;;;;27.30;9.05;;;;;;;;;;5053253;28;20096;-36
2021/11/14 02:31:12;;;;;;;19.77;9.05;;;;;;;;;;5053355;28;20452;-36
2021/11/14 02:33:38;;;;;;;19.55;8.35;;;;;;;;;;5053069;28;20017;-36
2021/11/14 02:36:05;;;;;;;16.08;7.90;;;;;;;;;;5053073;28;20086;-36
2021/11/14 02:38:31;;;;;;;20.65;8.95;;;;;;;;;;5052776;28;20075;-36
2021/11/14 02:40:57;;;;;;;13.95;6.97;;;;;;;;;;5053164;28;20453;-37
2021/11/14 02:43:22;;;;;;;17.67;8.52;;;;;;;;;;5052893;28;20032;-36
2021/11/14 02:45:48;;;;;;;15.32;8.68;;;;;;;;;;5052128;28;20124;-36
2021/11/14 02:48:14;;;;;;;16.85;8.20;;;;;;;;;;5053102;28;20517;-40
2021/11/14 02:50:40;;;;;;;16.95;8.25;;;;;;;;;;5052744;28;20108;-37
2021/11/14 02:53:06;;;;;;;21.08;9.45;;;;;;;;;;5053028;28;20545;-36
2021/11/14 02:55:32;;;;;;;17.50;8.65;;;;;;;;;;5052625;28;20123;-36
2021/11/14 02:57:58;;;;;;;20.75;9.82;;;;;;;;;;5052695;28;20047;-36
2021/11/14 03:00:25;;;;;;;18.95;9.43;;;;;;;;;;5051186;28;20071;-36
2021/11/14 03:02:50;;;;;;;18.33;10.02;;;;;;;;;;5052797;28;20473;-37
2021/11/14 03:05:17;;;;;;;21.70;9.10;;;;;;;;;;5052345;28;20120;-36
2021/11/14 03:07:43;;;;;;;16.75;8.98;;;;;;;;;;5052445;28;20021;-36
2021/11/14 03:10:11;;;;;;;15.45;7.75;;;;;;;;;;5052360;28;20028;-37
2021/11/14 03:12:36;;;;;;;21.70;9.52;;;;;;;;;;5052397;28;20017;-36
2021/11/14 03:15:02;;;;;;;17.08;8.75;;;;;;;;;;5052329;28;20036;-36
2021/11/14 03:17:27;;;;;;;16.60;7.72;;;;;;;;;;5052241;28;20524;-37
2021/11/14 03:19:54;;;;;;;19.17;7.90;;;;;;;;;;5052586;28;20514;-37
2021/11/14 03:22:19;;;;;;;16.23;7.30;;;;;;;;;;5052240;28;20044;-36
2021/11/14 03:24:45;;;;;;;14.80;7.47;;;;;;;;;;5034259;28;20033;-36
2021/11/14 03:27:10;;;;;;;16.20;8.45;;;;;;;;;;5052103;28;20468;-36
2021/11/14 03:29:36;;;;;;;24.88;8.93;;;;;;;;;;5051896;28;20048;-36
2021/11/14 03:32:02;;;;;;;16.90;8.77;;;;;;;;;;5051997;28;20028;-36
2021/11/14 03:34:28;;;;;;;11.02;6.75;;;;;;;;;;5052089;28;20043;-36
2021/11/14 03:36:54;;;;;;;12.77;6.72;;;;;;;;;;5051699;28;20494;-37
2021/11/14 03:39:19;;;;;;;12.77;6.70;;;;;;;;;;5051883;28;20040;-36
2021/11/14 03:41:45;;;;;;;14.18;8.25;;;;;;;;;;5051775;28;20013;-36
2021/11/14 03:44:10;;;;;;;16.23;7.40;;;;;;;;;;5051982;28;20121;-36
2021/11/14 03:46:36;;;;;;;16.90;8.85;;;;;;;;;;5051727;28;20056;-37
2021/11/14 03:49:02;;;;;;;13.00;6.95;;;;;;;;;;5051782;28;20035;-36
2021/11/14 03:51:28;;;;;;;14.13;8.50;;;;;;;;;;5051775;28;20059;-36
2021/11/14 03:53:54;;;;;;;15.35;8.07;;;;;;;;;;5050337;28;20064;-36
2021/11/14 03:56:19;;;;;;;15.23;7.05;;;;;;;;;;5051432;28;20013;-36
2021/11/14 03:58:45;;;;;;;18.63;8.07;;;;;;;;;;5051560;28;20033;-37
2021/11/14 04:01:11;;;;;;;19.02;9.02;;;;;;;;;;5051371;28;20112;-36
2021/11/14 04:03:37;;;;;;;14.48;8.15;;;;;;;;;;5051803;28;20057;-36
2021/11/14 04:06:03;;;;;;;15.90;7.40;;;;;;;;;;5051515;28;20450;-36
2021/11/14 04:08:28;;;;;;;18.90;9.40;;;;;;;;;;5051675;28;20036;-37
2021/11/14 04:10:56;;;;;;;13.38;7.40;;;;;;;;;;5051428;28;20032;-36
2021/11/14 04:13:22;;;;;;;15.20;7.82;;;;;;;;;;5051470;28;20056;-36
2021/11/14 04:15:47;;;;;;;15.15;6.43;;;;;;;;;;5051344;28;20503;-37
2021/11/14 04:18:13;;;;;;;12.30;6.78;;;;;;;;;;5051123;28;20021;-36
2021/11/14 04:20:40;;;;;;;13.63;7.00;;;;;;;;;;5051245;28;20025;-36
2021/11/14 04:23:06;;;;;;;13.13;6.75;;;;;;;;;;5051292;28;20037;-37
2021/11/14 04:25:31;;;;;;;13.95;7.38;;;;;;;;;;5051302;28;20053;-36
2021/11/14 04:27:57;;;;;;;14.77;7.20;;;;;;;;;;5051497;28;20029;-36
2021/11/14 04:30:23;;;;;;;13.95;6.18;;;;;;;;;;5050936;28;20095;-37
2021/11/14 04:32:49;;;;;;;14.70;7.47;;;;;;;;;;5051393;28;20364;-36
2021/11/14 04:35:14;;;;;;;11.38;5.90;;;;;;;;;;5051128;28;20131;-36
2021/11/14 04:37:40;;;;;;;16.00;8.70;;;;;;;;;;5051031;28;20045;-36
2021/11/14 04:40:07;;;;;;;13.93;6.88;;;;;;;;;;5051175;28;20037;-36
2021/11/14 04:42:32;;;;;;;13.02;6.88;;;;;;;;;;5050935;28;20040;-36
2021/11/14 04:44:58;;;;;;;10.93;6.28;;;;;;;;;;5033238;28;20033;-36
2021/11/14 04:47:23;;;;;;;14.80;6.78;;;;;;;;;;5051007;28;20111;-36
2021/11/14 04:49:49;;;;;;;12.75;7.10;;;;;;;;;;5033551;28;20479;-36
2021/11/14 04:52:14;;;;;;;16.60;7.35;;;;;;;;;;5050895;28;20111;-36
2021/11/14 04:54:39;;;;;;;11.57;6.80;;;;;;;;;;5050970;28;20017;-36
2021/11/14 04:57:05;;;;;;;17.15;7.82;;;;;;;;;;5050971;28;20037;-37
2021/11/14 04:59:30;;;;;;;13.18;7.55;;;;;;;;;;5033428;28;20044;-37
2021/11/14 05:01:56;;;;;;;11.13;5.68;;;;;;;;;;5050754;28;20554;-36
2021/11/14 05:04:21;;;;;;;14.23;8.07;;;;;;;;;;5050788;28;20036;-36
2021/11/14 05:06:46;;;;;;;15.13;6.93;;;;;;;;;;5033145;28;20053;-36
2021/11/14 05:09:12;;;;;;;12.13;5.80;;;;;;;;;;5054483;28;20096;-36
2021/11/14 05:11:37;;;;;;;15.27;7.10;;;;;;;;;;5054700;28;20036;-36
2021/11/14 05:14:03;;;;;;;15.23;6.82;;;;;;;;;;5054475;28;20017;-37
2021/11/14 05:16:28;;;;;;;9.63;6.32;;;;;;;;;;5054548;28;20471;-36
2021/11/14 05:18:54;;;;;;;15.50;7.60;;;;;;;;;;5054551;28;20021;-36
2021/11/14 05:21:19;;;;;;;13.10;6.80;;;;;;;;;;5054629;28;20044;-37
2021/11/14 05:23:44;;;;;;;13.73;5.72;;;;;;;;;;5036512;28;20482;-36
2021/11/14 05:26:11;;;;;;;9.27;5.60;;;;;;;;;;5054641;28;20052;-37
2021/11/14 05:28:37;;;;;;;17.20;6.80;;;;;;;;;;5054608;28;20100;-36
2021/11/14 05:31:02;;;;;;;9.68;5.15;;;;;;;;;;5054268;28;20535;-36
2021/11/14 05:33:27;;;;;;;9.98;5.80;;;;;;;;;;5054195;28;20021;-37
2021/11/14 05:35:53;;;;;;;10.38;6.32;;;;;;;;;;5054569;28;20029;-36
2021/11/14 05:38:19;;;;;;;13.57;6.05;;;;;;;;;;5053969;28;20060;-36
2021/11/14 05:40:45;;;;;;;9.13;5.65;;;;;;;;;;5054046;28;20157;-36
2021/11/14 05:43:10;;;;;;;12.32;5.50;;;;;;;;;;5054214;28;20106;-36
2021/11/14 05:45:36;;;;;;;9.80;5.07;;;;;;;;;;5053757;28;20040;-36
2021/11/14 05:48:02;;;;;;;12.45;6.15;;;;;;;;;;5054047;28;20017;-36
2021/11/14 05:50:27;;;;;;;12.85;5.28;;;;;;;;;;5053890;28;20029;-36
2021/11/14 05:52:53;;;;;;;10.80;5.97;;;;;;;;;;5053773;28;20397;-36
2021/11/14 05:55:18;;;;;;;10.38;5.63;;;;;;;;;;5053822;28;20021;-36
2021/11/14 06:00:13;;;;;;;10.52;6.00;;;;;;;;;;5053690;28;20476;-36
2021/11/14 06:05:19;;;;;;;10.52;5.82;;;;;;;;;;5053572;28;20040;-36
2021/11/14 06:07:45;;;;;;;8.45;5.13;;;;;;;;;;5035802;28;20040;-36
2021/11/14 06:10:11;;;;;;;7.63;5.20;;;;;;;;;;5053864;28;20029;-37
2021/11/14 06:12:37;;;;;;;8.98;4.28;;;;;;;;;;5053356;28;20033;-36
2021/11/14 06:15:04;;;;;;;10.70;5.03;;;;;;;;;;5053529;28;20371;-37
2021/11/14 06:17:29;;;;;;;7.70;4.45;;;;;;;;;;5053365;28;20071;-36
2021/11/14 06:19:55;;;;;;;8.05;4.93;;;;;;;;;;5053396;28;20049;-36
2021/11/14 06:22:20;;;;;;;9.15;5.68;;;;;;;;;;5053235;28;20123;-36
2021/11/14 06:24:46;;;;;;;9.40;5.38;;;;;;;;;;5053293;28;20112;-36
2021/11/14 06:27:11;;;;;;;8.38;4.82;;;;;;;;;;5053261;28;20047;-36
2021/11/14 06:29:37;;;;;;;11.07;5.85;;;;;;;;;;5053115;28;20047;-36
2021/11/14 06:32:02;;;;;;;8.90;4.20;;;;;;;;;;5053436;28;20039;-36
2021/11/14 06:34:28;;;;;;;8.73;4.25;;;;;;;;;;5052979;28;20099;-36
2021/11/14 06:36:53;;;;;;;7.97;5.05;;;;;;;;;;5052945;28;20133;-37
2021/11/14 06:39:19;;;;;;;8.60;4.63;;;;;;;;;;5053071;28;20056;-36
2021/11/14 06:41:45;;;;;;;9.45;4.15;;;;;;;;;;5052923;28;20091;-36
2021/11/14 06:44:10;;;;;;;8.57;4.82;;;;;;;;;;5052989;28;20023;-37
2021/11/14 06:46:36;;;;;;;9.15;4.03;;;;;;;;;;5052968;28;20041;-36
2021/11/14 06:49:01;;;;;;;6.75;4.43;;;;;;;;;;5053088;28;20021;-36
2021/11/14 06:51:27;;;;;;;10.02;5.38;;;;;;;;;;5034850;28;20044;-36
2021/11/14 06:53:52;;;;;;;8.05;4.65;;;;;;;;;;5052857;28;20024;-37
2021/11/14 06:56:17;;;;;;;7.43;3.70;;;;;;;;;;5052903;28;20397;-36
2021/11/14 06:58:43;;;;;;;5.07;3.08;;;;;;;;;;5052970;28;20099;-37
2021/11/14 07:01:08;;;;;;;5.03;3.10;;;;;;;;;;5052845;28;20104;-36
2021/11/14 07:03:34;;;;;;;7.15;4.05;;;;;;;;;;5052492;28;20527;-36
2021/11/14 07:05:59;;;;;;;7.07;3.80;;;;;;;;;;5052670;28;20037;-37
2021/11/14 07:08:25;;;;;;;6.72;4.25;;;;;;;;;;5052434;28;20021;-36
2021/11/14 07:10:50;;;;;;;7.63;3.03;;;;;;;;;;5052624;28;20036;-36
2021/11/14 07:13:15;;;;;;;6.30;3.55;;;;;;;;;;5052347;28;20021;-36
2021/11/14 07:15:41;;;;;;;6.10;3.58;;;;;;;;;;5034869;28;20087;-36
2021/11/14 07:18:06;;;;;;;6.47;3.53;;;;;;;;;;5052530;28;20348;-36
2021/11/14 07:20:32;;;;;;;7.65;4.07;;;;;;;;;;5052389;28;20056;-36
2021/11/14 07:22:58;;;;;;;4.90;3.03;;;;;;;;;;5052283;28;20025;-36
2021/11/14 07:25:23;;;;;;;5.63;3.35;;;;;;;;;;5051850;28;20068;-36
2021/11/14 07:27:50;;;;;;;5.35;3.03;;;;;;;;;;5052430;28;20044;-36
2021/11/14 07:30:17;;;;;;;5.88;3.35;;;;;;;;;;5033700;28;20025;-36
2021/11/14 07:32:43;;;;;;;10.55;3.75;;;;;;;;;;5034122;28;20025;-36
2021/11/14 07:35:12;;;;;;;5.63;3.55;;;;;;;;;;5050756;28;20044;-36
2021/11/14 07:37:41;;;;;;;5.45;3.05;;;;;;;;;;5051795;28;20125;-36
2021/11/14 07:40:07;;;;;;;6.47;3.25;;;;;;;;;;5033764;28;20033;-36
2021/11/14 07:42:33;;;;;;;4.07;2.30;;;;;;;;;;5034057;28;20048;-36
2021/11/14 07:44:58;;;;;;;5.13;4.15;;;;;;;;;;5050511;28;20041;-36
2021/11/14 07:47:24;;;;;;;5.53;2.95;;;;;;;;;;5051702;28;20483;-36
2021/11/14 07:49:49;;;;;;;5.38;3.20;;;;;;;;;;5051977;28;20506;-36
2021/11/14 07:52:15;;;;;;;6.22;3.63;;;;;;;;;;5051535;28;20139;-36
2021/11/14 07:54:41;;;;;;;3.85;2.70;;;;;;;;;;5051686;28;20036;-36
2021/11/14 07:57:06;;;;;;;4.68;2.88;;;;;;;;;;5051517;28;20021;-36
2021/11/14 07:59:32;;;;;;;3.75;2.30;;;;;;;;;;5051730;28;20036;-36
2021/11/14 08:01:58;;;;;;;4.65;2.85;;;;;;;;;;5051459;28;20090;-36
2021/11/14 08:04:23;;;;;;;5.45;3.63;;;;;;;;;;5051372;28;20104;-36
2021/11/14 08:06:49;;;;;;;6.57;2.85;;;;;;;;;;5051487;28;20037;-36
2021/11/14 08:09:14;;;;;;;4.78;2.58;;;;;;;;;;5051322;28;20029;-36
2021/11/14 08:11:40;;;;;;;3.90;2.58;;;;;;;;;;5051720;28;20491;-36
2021/11/14 08:14:05;;;;;;;6.03;2.63;;;;;;;;;;5051344;28;20021;-36
2021/11/14 08:16:31;;;;;;;3.97;2.67;;;;;;;;;;5051326;28;20039;-36
2021/11/14 08:18:56;;;;;;;4.70;2.70;;;;;;;;;;5051360;28;20037;-36
2021/11/14 08:21:22;;;;;;;4.90;2.72;;;;;;;;;;5051042;28;20033;-36
2021/11/14 08:23:47;;;;;;;3.75;2.20;;;;;;;;;;5051646;28;20037;-36
2021/11/14 08:26:13;;;;;;;2.97;2.15;;;;;;;;;;5051196;28;20827;-37
2021/11/14 08:28:38;;;;;;;3.38;2.05;;;;;;;;;;5051074;28;20044;-36
2021/11/14 08:31:04;;;;;;;9.18;3.50;;;;;;;;;;5051161;28;20028;-36
2021/11/14 08:33:32;;;;;;;4.30;2.67;;;;;;;;;;5051349;28;20025;-36
2021/11/14 08:35:57;;;;;;;3.28;2.25;;;;;;;;;;5051148;28;20031;-36
2021/11/14 08:38:24;;;;;;;3.70;2.67;;;;;;;;;;5051001;28;20123;-36
2021/11/14 08:40:49;;;;;;;3.55;2.10;;;;;;;;;;5051152;28;20035;-36
2021/11/14 08:43:15;;;;;;;1.95;1.73;;;;;;;;;;5052813;28;20029;-37
2021/11/14 08:45:42;;;;;;;3.03;2.17;;;;;;;;;;5055020;28;20128;-36
2021/11/14 08:48:08;;;;;;;3.28;2.42;;;;;;;;;;5054304;28;20024;-36
2021/11/14 08:50:34;;;;;;;2.47;1.92;;;;;;;;;;5054899;28;20099;-36
2021/11/14 08:53:00;;;;;;;3.47;2.08;;;;;;;;;;5055353;28;20032;-36
2021/11/14 08:55:25;;;;;;;3.47;2.58;;;;;;;;;;5054944;28;20463;-36
2021/11/14 08:57:52;;;;;;;2.15;1.95;;;;;;;;;;5055140;28;20033;-36
2021/11/14 09:00:20;;;;;;;3.17;2.10;;;;;;;;;;5055069;28;20094;-36
2021/11/14 09:02:46;;;;;;;2.67;1.92;;;;;;;;;;5054909;28;20032;-36
2021/11/14 09:05:11;;;;;;;4.07;2.08;;;;;;;;;;5054688;28;20028;-36
2021/11/14 09:07:37;;;;;;;3.28;2.03;;;;;;;;;;5054993;28;20025;-36
2021/11/14 09:10:03;;;;;;;2.03;1.70;;;;;;;;;;5054735;28;20021;-36
2021/11/14 09:12:29;;;;;;;4.03;1.80;;;;;;;;;;5054603;28;20021;-36
2021/11/14 09:14:56;;;;;;;1.67;1.58;;;;;;;;;;5054709;28;20384;-37
2021/11/14 09:17:22;;;;;;;4.15;2.10;;;;;;;;;;5054488;28;20107;-36
2021/11/14 09:19:47;;;;;;;3.00;2.00;;;;;;;;;;5054543;28;20028;-37
2021/11/14 09:22:13;;;;;;;3.30;1.95;;;;;;;;;;5036601;28;20033;-36
2021/11/14 09:24:39;;;;;;;2.33;1.83;;;;;;;;;;5054557;28;20021;-36
2021/11/14 09:27:06;;;;;;;2.88;2.05;;;;;;;;;;5054515;28;20401;-36
2021/11/14 09:29:31;;;;;;;3.67;1.77;;;;;;;;;;5054554;28;20418;-36
2021/11/14 09:31:57;;;;;;;5.82;2.65;;;;;;;;;;5054326;28;20025;-36
2021/11/14 09:34:23;;;;;;;3.50;1.73;;;;;;;;;;5054054;28;20016;-36
2021/11/14 09:36:48;;;;;;;3.20;1.88;;;;;;;;;;5053834;28;20061;-37
2021/11/14 09:39:14;;;;;;;2.10;1.60;;;;;;;;;;5053272;28;20087;-36
2021/11/14 09:41:42;;;;;;;3.55;1.88;;;;;;;;;;5052795;28;20025;-41
2021/11/14 09:44:10;;;;;;;3.33;1.85;;;;;;;;;;5053015;28;20035;-36
2021/11/14 09:46:37;;;;;;;1.65;1.55;;;;;;;;;;5052949;28;20037;-37
2021/11/14 09:49:05;;;;;;;2.15;1.75;;;;;;;;;;5035345;28;20435;-36
2021/11/14 09:51:30;;;;;;;2.47;1.80;;;;;;;;;;5052728;28;20029;-36
2021/11/14 09:53:56;;;;;;;4.53;1.85;;;;;;;;;;5050958;28;20067;-36
2021/11/14 09:56:21;;;;;;;2.30;1.40;;;;;;;;;;5052937;28;20037;-36
2021/11/14 09:58:47;;;;;;;2.50;1.40;;;;;;;;;;5052761;28;20036;-37
2021/11/14 10:01:12;;;;;;;2.40;1.58;;;;;;;;;;5052545;28;20079;-36
2021/11/14 10:03:38;;;;;;;1.50;1.40;;;;;;;;;;5052796;28;20024;-36
2021/11/14 10:06:03;;;;;;;2.28;1.70;;;;;;;;;;5052449;28;20120;-37
2021/11/14 10:08:42;;;;;;;2.05;1.50;;;;;;;;;;5052500;28;20017;-36
2021/11/14 10:11:08;;;;;;;3.65;1.50;;;;;;;;;;5052435;28;20025;-36
2021/11/14 10:13:36;;;;;;;2.83;1.92;;;;;;;;;;5052381;28;20055;-36
2021/11/14 10:16:17;;;;;;;3.20;1.55;;;;;;;;;;5052728;28;20033;-36
2021/11/14 10:18:53;;;;;;;2.92;1.50;;;;;;;;;;5052752;28;20068;-36
2021/11/14 10:21:19;;;;;;;3.38;1.83;;;;;;;;;;5052428;28;20029;-36
2021/11/14 10:23:45;;;;;;;1.95;1.75;;;;;;;;;;5052296;28;20510;-37
2021/11/14 10:26:11;;;;;;;1.73;1.38;;;;;;;;;;5052310;28;20040;-36
2021/11/14 10:28:41;;;;;;;1.67;1.30;;;;;;;;;;5052133;28;20021;-37
2021/11/14 10:31:07;;;;;;;3.03;1.40;;;;;;;;;;5052234;28;20036;-36
2021/11/14 10:33:33;;;;;;;3.80;1.75;;;;;;;;;;5034127;28;20021;-36
2021/11/14 10:35:59;;;;;;;1.77;1.33;;;;;;;;;;5034599;28;20040;-36
2021/11/14 10:38:26;;;;;;;2.60;1.50;;;;;;;;;;5011073;28;1195163;-37
2021/11/14 10:40:53;;;;;;;2.90;1.88;;;;;;;;;;5035247;28;20495;-37
2021/11/14 10:43:21;;;;;;;3.60;2.05;;;;;;;;;;5052900;28;20032;-36
2021/11/14 10:45:47;;;;;;;1.25;1.15;;;;;;;;;;5052891;28;20041;-36
2021/11/14 10:48:13;;;;;;;2.97;1.42;;;;;;;;;;5052950;28;20013;-36
2021/11/14 10:50:40;;;;;;;2.83;1.52;;;;;;;;;;5052850;28;20033;-37
2021/11/14 10:53:26;;;;;;;2.42;1.63;;;;;;;;;;5052862;28;20086;-36
2021/11/14 10:55:56;;;;;;;2.17;1.35;;;;;;;;;;5052799;28;20095;-36
2021/11/14 10:58:23;;;;;;;2.72;1.70;;;;;;;;;;5052646;28;20056;-36
2021/11/14 11:00:49;;;;;;;3.55;1.55;;;;;;;;;;5034812;28;20060;-36
2021/11/14 11:03:15;;;;;;;2.20;1.35;;;;;;;;;;5052872;28;20414;-36
2021/11/14 11:05:41;;;;;;;2.03;1.40;;;;;;;;;;5051605;28;20041;-36
2021/11/14 11:08:06;;;;;;;1.80;1.33;;;;;;;;;;5052578;28;20074;-36
2021/11/14 11:10:33;;;;;;;2.83;2.05;;;;;;;;;;5052649;28;20036;-36
2021/11/14 11:13:01;;;;;;;1.55;1.08;;;;;;;;;;5051186;28;20349;-36
2021/11/14 11:15:26;;;;;;;1.98;1.23;;;;;;;;;;5052346;28;20033;-36
2021/11/14 11:17:53;;;;;;;3.78;1.70;;;;;;;;;;5052655;28;20021;-36
2021/11/14 11:20:20;;;;;;;1.35;1.25;;;;;;;;;;5052106;28;20037;-36
2021/11/14 11:22:56;;;;;;;1.85;1.45;;;;;;;;;;5052314;28;20029;-36
2021/11/14 11:25:29;;;;;;;1.88;1.35;;;;;;;;;;5052066;28;20507;-36
2021/11/14 11:27:55;;;;;;;2.67;1.38;;;;;;;;;;5052415;28;20032;-35
2021/11/14 11:30:25;;;;;;;1.90;1.33;;;;;;;;;;5051950;28;20562;-36
2021/11/14 11:32:50;;;;;;;3.42;1.92;;;;;;;;;;5052119;28;20390;-36
2021/11/14 11:35:16;;;;;;;3.83;2.35;;;;;;;;;;5034256;28;20017;-37
2021/11/14 11:37:42;;;;;;;1.77;1.40;;;;;;;;;;5051705;28;20052;-36
2021/11/14 11:40:08;;;;;;;2.67;1.92;;;;;;;;;;5034022;28;20036;-36
2021/11/14 11:42:33;;;;;;;2.47;1.77;;;;;;;;;;5050545;28;20040;-36
2021/11/14 11:44:59;;;;;;;1.48;1.23;;;;;;;;;;5051805;28;20086;-36
2021/11/14 11:47:25;;;;;;;2.03;1.58;;;;;;;;;;5033883;28;20021;-37
2021/11/14 11:49:52;;;;;;;1.45;1.30;;;;;;;;;;5051718;28;20023;-37
2021/11/14 11:52:19;;;;;;;7.07;2.42;;;;;;;;;;5051724;28;20035;-36
2021/11/14 11:54:48;;;;;;;2.50;1.80;;;;;;;;;;5051719;28;20104;-37
2021/11/14 11:57:14;;;;;;;3.03;2.03;;;;;;;;;;5051985;28;20040;-37
2021/11/14 11:59:44;;;;;;;4.82;2.30;;;;;;;;;;5051591;28;20031;-36
2021/11/14 12:02:11;;;;;;;3.75;1.95;;;;;;;;;;5051546;28;20096;-37
2021/11/14 12:04:38;;;;;;;3.13;1.65;;;;;;;;;;5051446;28;20020;-36
2021/11/14 12:07:12;;;;;;;4.25;2.17;;;;;;;;;;5051536;28;20064;-36
2021/11/14 12:09:48;;;;;;;4.15;2.22;;;;;;;;;;5051411;28;20494;-38
2021/11/14 12:12:18;;;;;;;3.88;1.83;;;;;;;;;;5051725;28;20025;-36
2021/11/14 12:14:44;;;;;;;2.55;1.73;;;;;;;;;;5051343;28;20044;-36
2021/11/14 12:17:10;;;;;;;3.08;2.00;;;;;;;;;;5051221;28;20029;-36
2021/11/14 12:19:40;;;;;;;2.08;1.65;;;;;;;;;;5051332;28;20013;-36
2021/11/14 12:22:10;;;;;;;3.05;2.08;;;;;;;;;;5051355;28;20047;-37
2021/11/14 12:24:48;;;;;;;3.42;2.78;;;;;;;;;;5051094;28;20487;-36
2021/11/14 12:27:27;;;;;;;2.65;1.98;;;;;;;;;;5051532;28;20041;-36
2021/11/14 12:30:07;;;;;;;3.17;1.98;;;;;;;;;;5051120;28;20516;-36
2021/11/14 12:32:43;;;;;;;2.67;1.73;;;;;;;;;;5051157;28;20469;-36
2021/11/14 12:35:14;;;;;;;2.15;1.63;;;;;;;;;;5051470;28;20109;-36
2021/11/14 12:37:54;;;;;;;2.65;2.35;;;;;;;;;;5050945;28;20064;-36
2021/11/14 12:40:23;;;;;;;3.95;1.83;;;;;;;;;;5051119;28;20021;-36
2021/11/14 12:42:51;;;;;;;3.33;1.90;;;;;;;;;;5051044;28;20033;-36
2021/11/14 12:45:18;;;;;;;4.72;2.15;;;;;;;;;;5050962;28;20045;-36
2021/11/14 12:47:48;;;;;;;3.08;1.95;;;;;;;;;;5051201;28;20456;-36
2021/11/14 12:50:22;;;;;;;3.40;1.95;;;;;;;;;;5051105;28;20044;-36
2021/11/14 12:53:05;;;;;;;3.53;2.08;;;;;;;;;;5050907;28;20033;-36
2021/11/14 12:55:30;;;;;;;4.05;2.08;;;;;;;;;;5050978;28;20104;-36
2021/11/14 12:58:00;;;;;;;3.72;2.35;;;;;;;;;;5051302;28;20025;-36
2021/11/14 13:00:32;;;;;;;2.00;1.77;;;;;;;;;;5050787;28;20037;-36
2021/11/14 13:02:58;;;;;;;3.22;1.88;;;;;;;;;;5050900;28;20029;-37
2021/11/14 13:05:23;;;;;;;3.08;1.98;;;;;;;;;;5033193;28;20040;-37
2021/11/14 13:07:50;;;;;;;2.78;2.08;;;;;;;;;;5051180;28;20476;-37
2021/11/14 13:10:18;;;;;;;2.35;1.90;;;;;;;;;;5051072;28;20028;-37
2021/11/14 13:12:47;;;;;;;2.28;2.00;;;;;;;;;;5050821;28;20029;-36
2021/11/14 13:15:14;;;;;;;3.10;2.25;;;;;;;;;;5050776;28;20021;-36
2021/11/14 13:17:46;;;;;;;4.15;2.40;;;;;;;;;;5051005;28;20430;-36
2021/11/14 13:20:13;;;;;;;3.10;2.42;;;;;;;;;;5050675;28;20036;-36
2021/11/14 13:22:39;;;;;;;1.73;1.42;;;;;;;;;;5050943;28;20384;-36
2021/11/14 13:25:06;;;;;;;4.93;2.15;;;;;;;;;;5050704;28;20036;-37
2021/11/14 13:27:32;;;;;;;2.72;1.75;;;;;;;;;;5050581;28;20559;-36
2021/11/14 13:29:58;;;;;;;3.08;1.90;;;;;;;;;;5053422;28;20029;-36
2021/11/14 13:32:30;;;;;;;3.60;2.00;;;;;;;;;;5054297;28;20051;-36
2021/11/14 13:34:57;;;;;;;2.10;1.70;;;;;;;;;;5054270;28;20108;-36
2021/11/14 13:37:29;;;;;;;9.55;2.38;;;;;;;;;;5054167;28;20057;-36
2021/11/14 13:39:56;;;;;;;2.97;1.88;;;;;;;;;;5054241;28;20025;-36
2021/11/14 13:42:28;;;;;;;2.63;1.73;;;;;;;;;;5054010;28;20078;-37
2021/11/14 13:44:56;;;;;;;4.63;1.88;;;;;;;;;;5053954;28;20468;-36
2021/11/14 13:47:39;;;;;;;2.60;1.95;;;;;;;;;;5054076;28;20078;-37
2021/11/14 13:50:05;;;;;;;3.37;2.57;;;;;;;;;;5054008;28;20098;-36
2021/11/14 13:52:31;;;;;;;2.88;2.42;;;;;;;;;;5053949;28;20425;-37
2021/11/14 13:54:56;;;;;;;2.60;1.95;;;;;;;;;;5053923;28;20039;-36
2021/11/14 13:57:23;;;;;;;2.97;1.83;;;;;;;;;;5053861;28;20487;-37
2021/11/14 13:59:49;;;;;;;2.30;1.70;;;;;;;;;;5053987;28;20426;-36
2021/11/14 14:02:15;;;;;;;1.85;1.70;;;;;;;;;;5054022;28;20020;-36
2021/11/14 14:04:54;;;;;;;2.40;1.67;;;;;;;;;;5052485;28;20036;-36
2021/11/14 14:07:20;;;;;;;3.35;2.10;;;;;;;;;;5053987;28;20064;-36
2021/11/14 14:10:03;;;;;;;2.60;1.90;;;;;;;;;;5053510;28;20017;-37
2021/11/14 14:12:28;;;;;;;;;;;;;;;;;;5053978;28;20028;-37
2021/11/14 14:14:56;;;;;;;2.38;1.70;;;;;;;;;;5053671;28;19915;-36
2021/11/14 14:17:23;;;;;;;1.73;1.38;;;;;;;;;;5053552;28;20514;-36
2021/11/14 14:19:49;;;;;;;1.60;1.50;;;;;;;;;;5053509;28;20075;-36
2021/11/14 14:22:14;;;;;;;2.00;1.58;;;;;;;;;;5053416;28;20033;-36
2021/11/14 14:24:48;;;;;;;1.73;1.35;;;;;;;;;;5053206;28;20097;-36
2021/11/14 14:27:14;;;;;;;1.48;1.33;;;;;;;;;;5053125;28;20037;-36
2021/11/14 14:29:40;;;;;;;1.10;1.00;;;;;;;;;;5035318;28;20024;-36
2021/11/14 14:32:13;;;;;;;1.85;1.33;;;;;;;;;;5053231;28;20036;-36
2021/11/14 14:34:41;;;;;;;1.52;1.42;;;;;;;;;;5053150;28;20028;-36
2021/11/14 14:37:08;;;;;;;2.08;1.48;;;;;;;;;;5053116;28;20049;-36